Time;durP1;ratioP1;P1;durP2;ratioP2;P2;SDS_P1;SDS_P2;PMS_P1;PMS_P2;Temp;Humidity;BMP_temperature;BMP_pressure;BME280_temperature;BME280_humidity;BME280_pressure;Samples;Min_cycle;Max_cycle;Signal;HPM_P1;HPM_P2
2021/11/05 00:01:57;;;;;;;;;;;17.50;55.50;;;;;;4974415;28;19926;-44
2021/11/05 00:04:24;;;;;;;;;;;17.50;55.50;;;;;;4976346;28;19933;-44
2021/11/05 00:06:51;;;;;;;;;;;17.40;55.40;;;;;;4976209;28;19926;-44
2021/11/05 00:09:18;;;;;;;;;;;17.50;55.40;;;;;;4991182;28;20267;-44
2021/11/05 00:11:45;;;;;;;;;;;17.40;55.20;;;;;;4976165;28;19926;-44
2021/11/05 00:14:12;;;;;;;;;;;17.40;55.30;;;;;;4975854;28;19926;-45
2021/11/05 00:16:39;;;;;;;;;;;17.40;55.20;;;;;;4974036;28;19926;-46
2021/11/05 00:19:07;;;;;;;;;;;17.40;55.20;;;;;;4976002;28;19930;-50
2021/11/05 00:21:34;;;;;;;;;;;17.40;55.10;;;;;;4976566;28;19926;-50
2021/11/05 00:24:03;;;;;;;;;;;17.40;55.10;;;;;;4975883;28;20341;-49
2021/11/05 00:26:30;;;;;;;;;;;17.40;55.10;;;;;;4975642;28;19930;-50
2021/11/05 00:28:57;;;;;;;;;;;17.40;55.00;;;;;;4975836;28;19930;-44
2021/11/05 00:31:24;;;;;;;;;;;17.40;55.10;;;;;;4974214;28;19926;-44
2021/11/05 00:33:51;;;;;;;;;;;17.40;55.10;;;;;;4975518;28;19926;-44
2021/11/05 00:36:18;;;;;;;;;;;17.40;55.00;;;;;;4990352;28;19926;-44
2021/11/05 00:38:45;;;;;;;;;;;17.40;55.00;;;;;;4975465;28;19976;-44
2021/11/05 00:41:14;;;;;;;;;;;17.40;55.00;;;;;;4976253;28;19926;-44
2021/11/05 00:43:42;;;;;;;;;;;17.40;55.00;;;;;;4975405;28;19942;-45
2021/11/05 00:46:09;;;;;;;;;;;17.40;55.00;;;;;;4973658;28;19926;-44
2021/11/05 00:48:37;;;;;;;;;;;17.40;55.00;;;;;;4975220;28;19926;-44
2021/11/05 00:51:04;;;;;;;;;;;17.40;55.00;;;;;;4975511;28;20330;-44
2021/11/05 00:53:31;;;;;;;;;;;17.40;54.80;;;;;;4974040;28;19933;-46
2021/11/05 00:55:58;;;;;;;;;;;17.30;54.80;;;;;;4975275;28;19969;-44
2021/11/05 00:58:25;;;;;;;;;;;17.30;54.80;;;;;;4975516;28;19926;-45
2021/11/05 01:00:52;;;;;;;;;;;17.30;54.90;;;;;;4975459;28;19981;-44
2021/11/05 01:03:19;;;;;;;;;;;17.30;54.80;;;;;;4972880;28;19973;-47
2021/11/05 01:05:46;;;;;;;;;;;17.30;54.80;;;;;;4975122;28;19926;-47
2021/11/05 01:08:13;;;;;;;;;;;17.30;54.90;;;;;;4975298;28;19973;-46
2021/11/05 01:10:40;;;;;;;;;;;17.30;54.80;;;;;;4975078;28;20436;-50
2021/11/05 01:13:07;;;;;;;;;;;17.30;54.80;;;;;;4975316;28;19973;-46
2021/11/05 01:15:34;;;;;;;;;;;17.30;54.80;;;;;;4974972;28;19926;-44
2021/11/05 01:18:02;;;;;;;;;;;17.30;54.80;;;;;;4973530;28;19969;-44
2021/11/05 01:20:29;;;;;;;;;;;17.30;54.80;;;;;;4974898;28;19933;-46
2021/11/05 01:22:57;;;;;;;;;;;17.30;54.80;;;;;;4974777;28;20441;-46
2021/11/05 01:25:24;;;;;;;;;;;17.30;54.80;;;;;;4975190;28;19930;-47
2021/11/05 01:27:50;;;;;;;;;;;17.30;54.80;;;;;;4975138;28;19989;-45
2021/11/05 01:30:18;;;;;;;;;;;17.20;54.80;;;;;;4975145;28;19926;-45
2021/11/05 01:32:46;;;;;;;;;;;17.30;54.70;;;;;;4973067;28;19933;-46
2021/11/05 01:35:13;;;;;;;;;;;17.30;54.60;;;;;;4974814;28;20452;-48
2021/11/05 01:37:40;;;;;;;;;;;17.30;54.70;;;;;;4974758;28;19980;-48
2021/11/05 01:40:08;;;;;;;;;;;17.30;54.70;;;;;;4974780;28;19953;-47
2021/11/05 01:42:36;;;;;;;;;;;17.20;54.50;;;;;;4975022;28;19926;-51
2021/11/05 01:45:05;;;;;;;;;;;17.20;54.60;;;;;;4975056;28;19934;-45
2021/11/05 01:47:31;;;;;;;;;;;17.20;54.60;;;;;;4973134;28;19930;-50
2021/11/05 01:49:58;;;;;;;;;;;17.20;54.60;;;;;;4989816;28;19981;-45
2021/11/05 01:52:26;;;;;;;;;;;17.20;54.60;;;;;;4975060;28;19926;-44
2021/11/05 01:54:53;;;;;;;;;;;17.20;54.50;;;;;;4974500;28;20343;-44
2021/11/05 01:57:20;;;;;;;;;;;17.20;54.50;;;;;;4973487;28;19926;-46
2021/11/05 01:59:51;;;;;;;;;;;17.20;54.40;;;;;;4974900;28;19952;-46
2021/11/05 02:02:19;;;;;;;;;;;17.20;54.40;;;;;;4973254;28;19926;-44
2021/11/05 02:04:46;;;;;;;;;;;17.20;54.40;;;;;;4974597;28;19926;-44
2021/11/05 02:07:13;;;;;;;;;;;17.20;54.40;;;;;;4974777;28;19926;-45
2021/11/05 02:09:41;;;;;;;;;;;17.20;54.20;;;;;;4974805;28;19954;-44
2021/11/05 02:12:09;;;;;;;;;;;17.20;54.30;;;;;;4974469;28;20437;-44
2021/11/05 02:14:38;;;;;;;;;;;17.20;54.30;;;;;;4976114;28;19977;-44
2021/11/05 02:17:09;;;;;;;;;;;17.20;54.40;;;;;;4976553;28;20322;-44
2021/11/05 02:19:36;;;;;;;;;;;17.20;54.30;;;;;;4977974;28;19926;-44
2021/11/05 02:22:03;;;;;;;;;;;17.10;54.20;;;;;;4978257;28;19926;-45
2021/11/05 02:24:31;;;;;;;;;;;17.10;54.30;;;;;;4977840;28;19926;-44
2021/11/05 02:26:58;;;;;;;;;;;17.10;54.20;;;;;;4978144;28;19930;-45
2021/11/05 02:29:27;;;;;;;;;;;17.10;54.30;;;;;;4977782;28;19927;-46
2021/11/05 02:31:54;;;;;;;;;;;17.10;54.20;;;;;;4977750;28;19977;-50
2021/11/05 02:34:21;;;;;;;;;;;17.10;54.20;;;;;;4976448;28;19981;-50
2021/11/05 02:36:48;;;;;;;;;;;17.10;54.20;;;;;;4977690;28;19953;-49
2021/11/05 02:39:15;;;;;;;;;;;17.10;54.20;;;;;;4992519;28;20374;-50
2021/11/05 02:41:46;;;;;;;;;;;17.10;54.30;;;;;;4977583;28;19926;-48
2021/11/05 02:44:13;;;;;;;;;;;17.10;54.20;;;;;;4977589;28;20033;-52
2021/11/05 02:46:40;;;;;;;;;;;17.10;54.20;;;;;;4977836;28;20344;-49
2021/11/05 02:49:09;;;;;;;;;;;17.10;54.10;;;;;;4976062;28;19930;-50
2021/11/05 02:51:40;;;;;;;;;;;17.10;54.10;;;;;;4977727;28;19930;-51
2021/11/05 02:54:07;;;;;;;;;;;17.10;54.20;;;;;;4977365;28;19965;-49
2021/11/05 02:56:34;;;;;;;;;;;17.10;54.10;;;;;;4977381;28;20416;-50
2021/11/05 02:59:02;;;;;;;;;;;17.10;54.10;;;;;;4977329;28;19968;-51
2021/11/05 03:01:29;;;;;;;;;;;17.10;54.00;;;;;;4977569;28;19926;-48
2021/11/05 03:04:00;;;;;;;;;;;17.10;54.00;;;;;;4990503;28;20021;-48
2021/11/05 03:06:32;;;;;;;;;;;17.10;54.10;;;;;;4977171;28;19981;-50
2021/11/05 03:08:59;;;;;;;;;;;17.10;54.10;;;;;;4977139;28;19980;-45
2021/11/05 03:11:26;;;;;;;;;;;17.10;54.10;;;;;;4977923;28;19981;-46
2021/11/05 03:13:53;;;;;;;;;;;17.10;54.10;;;;;;4977075;28;19926;-44
2021/11/05 03:16:20;;;;;;;;;;;17.10;54.10;;;;;;4976988;28;19934;-47
2021/11/05 03:18:47;;;;;;;;;;;17.10;54.10;;;;;;4975270;28;20410;-52
2021/11/05 03:21:14;;;;;;;;;;;17.00;54.00;;;;;;4976935;28;20437;-49
2021/11/05 03:23:41;;;;;;;;;;;17.10;54.10;;;;;;4976772;28;19980;-45
2021/11/05 03:26:08;;;;;;;;;;;17.10;54.60;;;;;;4976135;28;19957;-49
2021/11/05 03:28:35;;;;;;;;;;;17.10;54.00;;;;;;4977504;28;19926;-49
2021/11/05 03:31:02;;;;;;;;;;;17.10;54.00;;;;;;4976663;28;19976;-51
2021/11/05 03:33:29;;;;;;;;;;;17.10;54.00;;;;;;4974983;28;19933;-46
2021/11/05 03:35:56;;;;;;;;;;;17.10;54.00;;;;;;4976600;28;19926;-46
2021/11/05 03:38:23;;;;;;;;;;;17.10;54.00;;;;;;4976886;28;19926;-46
2021/11/05 03:40:50;;;;;;;;;;;17.00;53.90;;;;;;4991650;28;19933;-50
2021/11/05 03:43:18;;;;;;;;;;;17.10;54.00;;;;;;4976482;28;19926;-47
2021/11/05 03:45:44;;;;;;;;;;;17.00;53.80;;;;;;4976455;28;19981;-47
2021/11/05 03:48:11;;;;;;;;;;;17.00;53.90;;;;;;4974972;28;19927;-44
2021/11/05 03:50:38;;;;;;;;;;;17.00;53.90;;;;;;4976253;28;19926;-48
2021/11/05 03:53:09;;;;;;;;;;;17.00;53.90;;;;;;4991013;28;19926;-44
2021/11/05 03:55:36;;;;;;;;;;;17.00;53.80;;;;;;4976100;28;19926;-52
2021/11/05 03:58:03;;;;;;;;;;;17.00;53.80;;;;;;4976268;28;20449;-50
2021/11/05 04:00:30;;;;;;;;;;;17.00;53.80;;;;;;4976176;28;19926;-44
2021/11/05 04:02:57;;;;;;;;;;;17.00;53.80;;;;;;4976108;28;20390;-48
2021/11/05 04:05:24;;;;;;;;;;;17.00;53.80;;;;;;4974617;28;19949;-47
2021/11/05 04:07:51;;;;;;;;;;;17.00;53.80;;;;;;4976262;28;19926;-48
2021/11/05 04:10:18;;;;;;;;;;;17.00;53.80;;;;;;4976280;28;19926;-44
2021/11/05 04:12:45;;;;;;;;;;;17.00;53.80;;;;;;4975912;28;19926;-44
2021/11/05 04:15:12;;;;;;;;;;;17.00;53.80;;;;;;4975865;28;19957;-48
2021/11/05 04:17:39;;;;;;;;;;;17.00;53.80;;;;;;4976662;28;19953;-48
2021/11/05 04:20:07;;;;;;;;;;;17.00;53.80;;;;;;4974374;28;19958;-44
2021/11/05 04:22:34;;;;;;;;;;;17.00;53.80;;;;;;4975764;28;19926;-50
2021/11/05 04:25:01;;;;;;;;;;;17.00;53.70;;;;;;4975566;28;20378;-46
2021/11/05 04:27:28;;;;;;;;;;;17.00;53.70;;;;;;4975954;28;19930;-44
2021/11/05 04:29:55;;;;;;;;;;;17.00;53.70;;;;;;4975542;28;20440;-49
2021/11/05 04:32:22;;;;;;;;;;;17.00;53.80;;;;;;4975885;28;20267;-47
2021/11/05 04:34:48;;;;;;;;;;;17.00;53.60;;;;;;4964166;28;20382;-45
2021/11/05 04:37:15;;;;;;;;;;;17.00;53.70;;;;;;4956052;28;20314;-48
2021/11/05 04:39:42;;;;;;;;;;;17.00;53.70;;;;;;4956127;28;19989;-48
2021/11/05 04:42:09;;;;;;;;;;;17.00;53.70;;;;;;4956464;28;19926;-47
2021/11/05 04:44:36;;;;;;;;;;;17.00;53.70;;;;;;4957285;28;19974;-44
2021/11/05 04:47:07;;;;;;;;;;;17.00;53.60;;;;;;4956437;28;19972;-45
2021/11/05 04:49:34;;;;;;;;;;;17.00;53.60;;;;;;4962184;28;19926;-49
2021/11/05 04:52:01;;;;;;;;;;;17.00;53.60;;;;;;4975290;28;19976;-49
2021/11/05 04:54:28;;;;;;;;;;;17.00;53.60;;;;;;4975109;28;19926;-46
2021/11/05 04:56:55;;;;;;;;;;;17.00;53.50;;;;;;4975506;28;19989;-44
2021/11/05 04:59:22;;;;;;;;;;;17.00;53.50;;;;;;4975524;28;19965;-47
2021/11/05 05:01:49;;;;;;;;;;;17.00;53.60;;;;;;4975166;28;19926;-45
2021/11/05 05:04:16;;;;;;;;;;;17.00;53.50;;;;;;4973854;28;19925;-48
2021/11/05 05:06:43;;;;;;;;;;;17.00;53.40;;;;;;4975939;28;19933;-46
2021/11/05 05:09:11;;;;;;;;;;;17.00;53.50;;;;;;4975304;28;19999;-45
2021/11/05 05:11:40;;;;;;;;;;;17.00;53.50;;;;;;4975038;28;19930;-47
2021/11/05 05:14:08;;;;;;;;;;;17.00;53.50;;;;;;4975304;28;19936;-47
2021/11/05 05:16:34;;;;;;;;;;;17.00;53.50;;;;;;4990203;28;20333;-45
2021/11/05 05:19:01;;;;;;;;;;;16.90;53.50;;;;;;4973420;28;19941;-50
2021/11/05 05:21:28;;;;;;;;;;;17.00;53.60;;;;;;4975170;28;19930;-48
2021/11/05 05:23:55;;;;;;;;;;;17.00;53.60;;;;;;4974713;28;19941;-51
2021/11/05 05:26:22;;;;;;;;;;;17.00;53.50;;;;;;4975184;28;19941;-44
2021/11/05 05:28:49;;;;;;;;;;;17.00;54.10;;;;;;4974809;28;19977;-44
2021/11/05 05:31:16;;;;;;;;;;;17.00;53.50;;;;;;4975173;28;20341;-44
2021/11/05 05:33:43;;;;;;;;;;;17.00;53.50;;;;;;4975112;28;19930;-44
2021/11/05 05:36:10;;;;;;;;;;;17.00;53.50;;;;;;4972314;28;19954;-44
2021/11/05 05:38:37;;;;;;;;;;;17.00;53.60;;;;;;4955793;28;19969;-44
2021/11/05 05:41:09;;;;;;;;;;;17.00;53.60;;;;;;4954404;29;19974;-44
2021/11/05 05:43:37;;;;;;;;;;;17.00;53.50;;;;;;4955769;28;19928;-44
2021/11/05 05:46:04;;;;;;;;;;;17.00;53.50;;;;;;4955409;28;20417;-44
2021/11/05 05:48:31;;;;;;;;;;;17.00;53.60;;;;;;4955624;28;20283;-44
2021/11/05 05:50:58;;;;;;;;;;;17.00;53.70;;;;;;4971086;28;19954;-45
2021/11/05 05:53:25;;;;;;;;;;;17.00;54.00;;;;;;4978463;28;19933;-44
2021/11/05 05:55:52;;;;;;;;;;;17.00;54.40;;;;;;4978773;28;19949;-44
2021/11/05 05:58:19;;;;;;;;;;;17.00;54.70;;;;;;4978575;28;19926;-44
2021/11/05 06:00:46;;;;;;;;;;;17.00;54.70;;;;;;4978309;28;19982;-44
2021/11/05 06:03:14;;;;;;;;;;;17.00;54.60;;;;;;4978307;28;20457;-44
2021/11/05 06:05:41;;;;;;;;;;;17.00;54.40;;;;;;4976893;28;20017;-42
2021/11/05 06:08:08;;;;;;;;;;;17.00;54.50;;;;;;4978142;28;19930;-44
2021/11/05 06:10:35;;;;;;;;;;;17.00;54.40;;;;;;4978453;28;20279;-44
2021/11/05 06:13:02;;;;;;;;;;;17.00;54.20;;;;;;4978062;28;19930;-44
2021/11/05 06:15:29;;;;;;;;;;;17.00;54.20;;;;;;4978346;28;19969;-44
2021/11/05 06:17:56;;;;;;;;;;;17.00;54.10;;;;;;4978030;28;19926;-46
2021/11/05 06:20:23;;;;;;;;;;;17.10;54.10;;;;;;4976301;28;19926;-46
2021/11/05 06:22:50;;;;;;;;;;;17.00;54.00;;;;;;4977828;28;20460;-44
2021/11/05 06:25:17;;;;;;;;;;;17.10;53.90;;;;;;4977886;28;20046;-46
2021/11/05 06:27:44;;;;;;;;;;;17.10;53.90;;;;;;4977854;28;19971;-44
2021/11/05 06:30:12;;;;;;;;;;;17.10;53.80;;;;;;4977722;28;20428;-49
2021/11/05 06:32:39;;;;;;;;;;;17.10;53.90;;;;;;4978045;28;20360;-49
2021/11/05 06:35:07;;;;;;;;;;;17.10;53.90;;;;;;4974957;28;19969;-49
2021/11/05 06:37:37;;;;;;;;;;;17.10;53.90;;;;;;4977912;28;19926;-50
2021/11/05 06:40:08;;;;;;;;;;;17.10;53.90;;;;;;4977938;28;19930;-43
2021/11/05 06:42:35;;;;;;;;;;;17.10;53.80;;;;;;4977491;28;19969;-51
2021/11/05 06:45:02;;;;;;;;;;;17.10;53.80;;;;;;4977793;28;19977;-49
2021/11/05 06:47:29;;;;;;;;;;;17.10;53.90;;;;;;4977719;28;19933;-49
2021/11/05 06:49:56;;;;;;;;;;;17.10;53.80;;;;;;4976135;28;19962;-46
2021/11/05 06:52:23;;;;;;;;;;;17.10;53.80;;;;;;4976834;28;19930;-51
2021/11/05 06:54:50;;;;;;;;;;;17.10;53.80;;;;;;4977167;28;19930;-53
2021/11/05 06:57:17;;;;;;;;;;;17.20;53.80;;;;;;4978469;28;19926;-49
2021/11/05 06:59:44;;;;;;;;;;;17.10;53.70;;;;;;4977203;28;19972;-51
2021/11/05 07:02:11;;;;;;;;;;;17.20;53.80;;;;;;4976201;28;19972;-48
2021/11/05 07:04:38;;;;;;;;;;;17.20;53.80;;;;;;4977269;28;19973;-48
2021/11/05 07:07:05;;;;;;;;;;;17.20;53.80;;;;;;4990661;28;19926;-45
2021/11/05 07:09:32;;;;;;;;;;;17.20;53.80;;;;;;4977307;28;19973;-44
2021/11/05 07:12:00;;;;;;;;;;;17.20;53.80;;;;;;4977925;28;19926;-44
2021/11/05 07:14:27;;;;;;;;;;;17.20;53.80;;;;;;4977234;28;20305;-43
2021/11/05 07:16:54;;;;;;;;;;;17.20;53.80;;;;;;4977259;28;19930;-46
2021/11/05 07:19:24;;;;;;;;;;;17.20;53.80;;;;;;4977135;28;19993;-46
2021/11/05 07:21:58;;;;;;;;;;;17.20;53.80;;;;;;4975596;28;20322;-44
2021/11/05 07:24:30;;;;;;;;;;;17.20;53.70;;;;;;4976748;28;19926;-46
2021/11/05 07:26:57;;;;;;;;;;;17.30;53.80;;;;;;4992043;28;19926;-46
2021/11/05 07:29:26;;;;;;;;;;;17.20;53.70;;;;;;4976684;28;19969;-44
2021/11/05 07:31:58;;;;;;;;;;;17.20;53.70;;;;;;4976988;28;20333;-44
2021/11/05 07:34:30;;;;;;;;;;;17.20;53.70;;;;;;4977054;28;19930;-45
2021/11/05 07:36:57;;;;;;;;;;;17.30;53.80;;;;;;4975111;28;19973;-45
2021/11/05 07:39:24;;;;;;;;;;;17.30;53.80;;;;;;4976553;28;19974;-44
2021/11/05 07:41:51;;;;;;;;;;;17.20;53.70;;;;;;4976811;28;19926;-44
2021/11/05 07:44:18;;;;;;;;;;;17.30;53.80;;;;;;4976567;28;19926;-44
2021/11/05 07:46:47;;;;;;;;;;;17.30;53.80;;;;;;4975878;28;19926;-44
2021/11/05 07:49:14;;;;;;;;;;;17.30;53.60;;;;;;4976127;28;19973;-50
2021/11/05 07:51:42;;;;;;;;;;;17.30;53.60;;;;;;4975177;28;19974;-47
2021/11/05 07:54:10;;;;;;;;;;;17.30;53.70;;;;;;4975692;28;20115;-44
2021/11/05 07:56:37;;;;;;;;;;;17.30;53.70;;;;;;4976514;28;19930;-44
2021/11/05 07:59:05;;;;;;;;;;;17.30;53.70;;;;;;4976474;28;19930;-44
2021/11/05 08:01:32;;;;;;;;;;;17.30;53.80;;;;;;4976447;28;19984;-44
2021/11/05 08:04:00;;;;;;;;;;;17.30;53.80;;;;;;4976067;28;19930;-44
2021/11/05 08:06:26;;;;;;;;;;;17.30;53.70;;;;;;4975339;28;19930;-45
2021/11/05 08:08:58;;;;;;;;;;;17.40;53.90;;;;;;4975029;28;19930;-47
2021/11/05 08:11:29;;;;;;;;;;;17.30;53.90;;;;;;4976252;28;19926;-44
2021/11/05 08:13:57;;;;;;;;;;;17.30;53.90;;;;;;4975770;28;19954;-44
2021/11/05 08:16:24;;;;;;;;;;;17.30;53.80;;;;;;4976042;28;20259;-47
2021/11/05 08:18:52;;;;;;;;;;;17.40;54.00;;;;;;4975916;28;20345;-45
2021/11/05 08:21:20;;;;;;;;;;;17.40;54.00;;;;;;4974964;28;19973;-44
2021/11/05 08:23:47;;;;;;;;;;;17.40;54.10;;;;;;4974655;28;19926;-45
2021/11/05 08:26:14;;;;;;;;;;;17.40;54.10;;;;;;4975707;28;20046;-46
2021/11/05 08:28:42;;;;;;;;;;;17.40;54.10;;;;;;4975939;28;19962;-46
2021/11/05 08:31:11;;;;;;;;;;;17.40;54.20;;;;;;4975546;28;19933;-44
2021/11/05 08:33:40;;;;;;;;;;;17.40;54.30;;;;;;4975480;28;19981;-46
2021/11/05 08:36:08;;;;;;;;;;;17.50;54.70;;;;;;4974556;28;19926;-45
2021/11/05 08:38:35;;;;;;;;;;;17.40;54.90;;;;;;4965112;28;19974;-46
2021/11/05 08:41:02;;;;;;;;;;;17.40;55.20;;;;;;4956081;28;19934;-46
2021/11/05 08:43:31;;;;;;;;;;;17.40;55.40;;;;;;4956068;28;19969;-44
2021/11/05 08:46:00;;;;;;;;;;;17.40;55.40;;;;;;4956022;28;19986;-49
2021/11/05 08:48:28;;;;;;;;;;;17.40;55.40;;;;;;4955093;29;19976;-45
2021/11/05 08:50:57;;;;;;;;;;;17.40;55.30;;;;;;4970580;28;19981;-47
2021/11/05 08:53:24;;;;;;;;;;;17.40;55.20;;;;;;4972090;28;19930;-49
2021/11/05 08:55:51;;;;;;;;;;;17.40;55.00;;;;;;4975222;28;19926;-44
2021/11/05 08:58:18;;;;;;;;;;;17.40;55.00;;;;;;4975416;28;19927;-46
2021/11/05 09:00:45;;;;;;;;;;;17.50;54.70;;;;;;4975054;28;19976;-48
2021/11/05 09:03:12;;;;;;;;;;;17.40;54.60;;;;;;4989955;28;19930;-51
2021/11/05 09:05:40;;;;;;;;;;;17.40;54.40;;;;;;4975755;28;19926;-44
2021/11/05 09:08:08;;;;;;;;;;;17.50;54.30;;;;;;4973272;28;19972;-44
2021/11/05 09:10:35;;;;;;;;;;;17.40;54.20;;;;;;4974895;28;20366;-45
2021/11/05 09:13:04;;;;;;;;;;;17.40;54.00;;;;;;4974126;28;19977;-49
2021/11/05 09:15:31;;;;;;;;;;;17.40;53.90;;;;;;4975047;28;19949;-46
2021/11/05 09:17:59;;;;;;;;;;;17.40;53.70;;;;;;4975227;28;19926;-44
2021/11/05 09:20:26;;;;;;;;;;;17.50;53.60;;;;;;4974809;28;19926;-44
2021/11/05 09:22:53;;;;;;;;;;;17.50;53.30;;;;;;4972547;28;20393;-45
2021/11/05 09:25:20;;;;;;;;;;;17.50;52.80;;;;;;4961163;28;19993;-43
2021/11/05 09:27:48;;;;;;;;;;;17.50;52.40;;;;;;4961962;28;20383;-45
2021/11/05 09:30:15;;;;;;;;;;;17.50;51.80;;;;;;4960737;29;19957;-44
2021/11/05 09:32:42;;;;;;;;;;;17.50;51.10;;;;;;4961939;28;19927;-45
2021/11/05 09:35:10;;;;;;;;;;;17.50;50.70;;;;;;4962210;28;20268;-45
2021/11/05 09:37:38;;;;;;;;;;;17.50;50.50;;;;;;4969000;28;19969;-44
2021/11/05 09:40:06;;;;;;;;;;;17.50;50.10;;;;;;4979799;28;20370;-44
2021/11/05 09:42:34;;;;;;;;;;;17.50;50.20;;;;;;4980961;28;20402;-46
2021/11/05 09:45:02;;;;;;;;;;;17.50;49.90;;;;;;4978423;28;19926;-44
2021/11/05 09:47:29;;;;;;;;;;;17.50;50.50;;;;;;4981373;28;20330;-45
2021/11/05 09:49:56;;;;;;;;;;;17.50;50.10;;;;;;4981042;28;19930;-48
2021/11/05 09:52:23;;;;;;;;;;;17.50;49.70;;;;;;4980258;28;19996;-44
2021/11/05 09:54:50;;;;;;;;;;;17.50;49.50;;;;;;4979829;28;19934;-44
2021/11/05 09:57:17;;;;;;;;;;;17.50;50.20;;;;;;4981342;28;19933;-44
2021/11/05 09:59:44;;;;;;;;;;;17.50;50.20;;;;;;4981012;28;19977;-43
2021/11/05 10:02:12;;;;;;;;;;;17.50;50.30;;;;;;4980170;28;19996;-44
2021/11/05 10:04:39;;;;;;;;;;;17.50;50.40;;;;;;4981259;28;19926;-44
2021/11/05 10:07:10;;;;;;;;;;;17.50;50.30;;;;;;4980028;28;19927;-46
2021/11/05 10:09:38;;;;;;;;;;;17.50;50.40;;;;;;4980131;28;19957;-46
2021/11/05 10:12:15;;;;;;;;;;;17.50;50.10;;;;;;4980934;28;20420;-44
2021/11/05 10:14:43;;;;;;;;;;;17.50;50.50;;;;;;4981297;28;19937;-44
2021/11/05 10:17:11;;;;;;;;;;;17.50;50.20;;;;;;4981198;28;19934;-45
2021/11/05 10:19:46;;;;;;;;;;;17.50;50.10;;;;;;4980806;28;19926;-46
2021/11/05 10:22:43;;;;;;;;;;;17.50;50.30;;;;;;4980202;28;20038;-44
2021/11/05 10:25:16;;;;;;;;;;;17.50;50.30;;;;;;4979763;28;19930;-44
2021/11/05 10:27:43;;;;;;;;;;;17.50;50.20;;;;;;4980857;28;19976;-45
2021/11/05 10:30:10;;;;;;;;;;;17.50;50.20;;;;;;4980993;28;19934;-45
2021/11/05 10:32:40;;;;;;;;;;;17.50;50.30;;;;;;4981056;28;19930;-43
2021/11/05 10:35:12;;;;;;;;;;;17.50;50.30;;;;;;4981004;28;19926;-43
2021/11/05 10:37:41;;;;;;;;;;;17.50;50.20;;;;;;4976999;28;19976;-44
2021/11/05 10:40:09;;;;;;;;;;;17.50;49.60;;;;;;4976982;28;19980;-44
2021/11/05 10:42:38;;;;;;;;;;;17.50;49.70;;;;;;4977636;28;19965;-44
2021/11/05 10:45:08;;;;;;;;;;;17.50;49.60;;;;;;4977925;28;20051;-46
2021/11/05 10:47:35;;;;;;;;;;;17.50;49.50;;;;;;4977846;28;19926;-44
2021/11/05 10:50:12;;;;;;;;;;;17.50;49.50;;;;;;4977639;28;19926;-44
2021/11/05 10:52:39;;;;;;;;;;;17.50;49.90;;;;;;4976399;28;19961;-44
2021/11/05 10:55:08;;;;;;;;;;;17.50;50.10;;;;;;4976508;28;19976;-44
2021/11/05 10:57:42;;;;;;;;;;;17.50;50.30;;;;;;4977610;28;20341;-45
2021/11/05 11:00:39;;;;;;;;;;;17.50;49.90;;;;;;4977569;28;19930;-44
2021/11/05 11:03:15;;;;;;;;;;;17.50;49.80;;;;;;4975347;28;19968;-44
2021/11/05 11:05:43;;;;;;;;;;;17.50;49.70;;;;;;4975029;28;20018;-46
2021/11/05 11:08:38;;;;;;;;;;;17.50;49.20;;;;;;4974054;28;20329;-45
2021/11/05 11:11:13;;;;;;;;;;;17.50;49.20;;;;;;4971049;28;20016;-45
2021/11/05 11:13:40;;;;;;;;;;;17.60;49.40;;;;;;4975148;28;20048;-49
2021/11/05 11:16:09;;;;;;;;;;;17.60;49.40;;;;;;4975026;28;19926;-45
2021/11/05 11:18:44;;;;;;;;;;;17.60;49.00;;;;;;4974900;28;19926;-48
2021/11/05 11:21:11;;;;;;;;;;;17.60;48.80;;;;;;4975131;28;20433;-44
2021/11/05 11:23:38;;;;;;;;;;;17.70;48.80;;;;;;4973857;28;20444;-49
2021/11/05 11:26:06;;;;;;;;;;;17.70;48.60;;;;;;4974090;28;19934;-51
2021/11/05 11:28:33;;;;;;;;;;;17.70;48.60;;;;;;4974505;28;20417;-49
2021/11/05 11:31:00;;;;;;;;;;;17.70;48.30;;;;;;4958643;28;19930;-49
2021/11/05 11:33:28;;;;;;;;;;;17.80;48.10;;;;;;4974382;28;19985;-48
2021/11/05 11:35:55;;;;;;;;;;;17.70;48.20;;;;;;4974675;28;19926;-51
2021/11/05 11:38:22;;;;;;;;;;;17.70;48.10;;;;;;4973662;28;19976;-51
2021/11/05 11:40:49;;;;;;;;;;;17.70;48.30;;;;;;4963987;28;20021;-50
2021/11/05 11:43:17;;;;;;;;;;;17.70;48.30;;;;;;4957197;28;20386;-48
2021/11/05 11:45:45;;;;;;;;;;;17.70;48.20;;;;;;4957172;28;20398;-50
2021/11/05 11:48:32;;;;;;;;;;;17.70;48.10;;;;;;4956845;28;19973;-46
2021/11/05 11:51:18;;;;;;;;;;;17.70;48.40;;;;;;4956919;28;19926;-49
2021/11/05 11:53:45;;;;;;;;;;;17.70;48.50;;;;;;4961192;28;20026;-45
2021/11/05 11:56:22;;;;;;;;;;;17.70;48.20;;;;;;4961621;28;19926;-44
2021/11/05 11:58:53;;;;;;;;;;;17.70;48.40;;;;;;4956971;28;19980;-44
2021/11/05 12:01:21;;;;;;;;;;;17.70;48.60;;;;;;4956883;28;20006;-44
2021/11/05 12:04:01;;;;;;;;;;;17.70;48.80;;;;;;4956841;28;19934;-44
2021/11/05 12:06:48;;;;;;;;;;;17.70;48.90;;;;;;4957120;28;19982;-44
2021/11/05 12:09:21;;;;;;;;;;;17.70;48.90;;;;;;4963622;28;19926;-44
2021/11/05 12:11:48;;;;;;;;;;;17.70;48.70;;;;;;4975398;28;19926;-44
2021/11/05 12:14:16;;;;;;;;;;;17.70;48.70;;;;;;4975989;28;19927;-45
2021/11/05 12:17:03;;;;;;;;;;;17.80;48.60;;;;;;4974737;28;19926;-44
2021/11/05 12:19:34;;;;;;;;;;;17.70;48.40;;;;;;4976095;28;19930;-45
2021/11/05 12:22:10;;;;;;;;;;;17.70;48.10;;;;;;4975821;28;19977;-44
2021/11/05 12:24:37;;;;;;;;;;;17.70;48.20;;;;;;4974976;28;20297;-44
2021/11/05 12:27:07;;;;;;;;;;;17.70;48.30;;;;;;4975012;28;19973;-45
2021/11/05 12:29:34;;;;;;;;;;;17.70;48.40;;;;;;4975699;28;19926;-48
2021/11/05 12:32:24;;;;;;;;;;;17.80;48.10;;;;;;4975568;28;19934;-47
2021/11/05 12:34:53;;;;;;;;;;;17.70;47.90;;;;;;4975249;28;19932;-47
2021/11/05 12:37:29;;;;;;;;;;;17.70;47.90;;;;;;4975869;28;20017;-46
2021/11/05 12:40:17;;;;;;;;;;;17.70;47.90;;;;;;4973579;28;19926;-46
2021/11/05 12:42:44;;;;;;;;;;;17.70;47.90;;;;;;4975438;28;19977;-47
2021/11/05 12:45:11;;;;;;;;;;;17.60;48.10;;;;;;4975703;28;19926;-47
2021/11/05 12:47:52;;;;;;;;;;;17.60;48.40;;;;;;4975387;28;19981;-45
2021/11/05 12:50:23;;;;;;;;;;;17.60;48.40;;;;;;4975422;28;19933;-51
2021/11/05 12:52:57;;;;;;;;;;;17.60;48.40;;;;;;4975559;28;20354;-50
2021/11/05 12:55:30;;;;;;;;;;;17.60;48.80;;;;;;4973422;28;19930;-44
2021/11/05 12:57:59;;;;;;;;;;;17.60;48.80;;;;;;4975528;28;19984;-44
2021/11/05 13:00:31;;;;;;;;;;;17.70;49.00;;;;;;4975454;28;19926;-45
2021/11/05 13:02:59;;;;;;;;;;;17.60;49.00;;;;;;4975216;28;19976;-46
2021/11/05 13:05:28;;;;;;;;;;;17.60;48.80;;;;;;4990387;28;19930;-45
2021/11/05 13:07:56;;;;;;;;;;;17.60;48.80;;;;;;4975453;28;19996;-46
2021/11/05 13:10:24;;;;;;;;;;;17.70;49.00;;;;;;4973195;28;19954;-51
2021/11/05 13:12:52;;;;;;;;;;;17.70;48.90;;;;;;4975413;28;19961;-44
2021/11/05 13:15:20;;;;;;;;;;;17.70;48.70;;;;;;4975895;28;19938;-46
2021/11/05 13:17:47;;;;;;;;;;;17.70;48.50;;;;;;4975012;28;20441;-51
2021/11/05 13:20:20;;;;;;;;;;;17.70;48.80;;;;;;4975230;28;20341;-47
2021/11/05 13:22:48;;;;;;;;;;;17.70;48.90;;;;;;4975196;28;19957;-44
2021/11/05 13:25:17;;;;;;;;;;;17.70;48.90;;;;;;4973581;28;19981;-46
2021/11/05 13:27:46;;;;;;;;;;;17.70;48.80;;;;;;4974898;28;20329;-44
2021/11/05 13:30:14;;;;;;;;;;;17.70;48.90;;;;;;4974785;28;19930;-47
2021/11/05 13:32:42;;;;;;;;;;;17.60;49.00;;;;;;4974883;28;19930;-44
2021/11/05 13:35:09;;;;;;;;;;;17.60;49.30;;;;;;4975175;28;20329;-46
2021/11/05 13:37:37;;;;;;;;;;;17.60;49.40;;;;;;4974873;28;20002;-44
2021/11/05 13:40:05;;;;;;;;;;;17.70;49.30;;;;;;4989075;28;19926;-44
2021/11/05 13:42:32;;;;;;;;;;;17.70;49.30;;;;;;4974096;28;20341;-44
2021/11/05 13:45:00;;;;;;;;;;;17.70;49.40;;;;;;4975106;28;20297;-44
2021/11/05 13:47:27;;;;;;;;;;;17.70;49.40;;;;;;4975051;28;19975;-44
2021/11/05 13:50:03;;;;;;;;;;;17.70;49.30;;;;;;4974686;28;19977;-45
2021/11/05 13:52:29;;;;;;;;;;;17.70;49.20;;;;;;4975013;28;19996;-45
2021/11/05 13:54:57;;;;;;;;;;;17.70;49.40;;;;;;4973504;28;20322;-48
2021/11/05 13:57:24;;;;;;;;;;;17.70;48.90;;;;;;4960274;28;19926;-45
2021/11/05 13:59:52;;;;;;;;;;;17.70;49.00;;;;;;4956232;28;19973;-44
2021/11/05 14:02:38;;;;;;;;;;;17.70;49.00;;;;;;4955872;28;19926;-44
2021/11/05 14:05:05;;;;;;;;;;;17.60;48.80;;;;;;4955632;28;19927;-46
2021/11/05 14:07:33;;;;;;;;;;;17.70;49.00;;;;;;4954203;29;19930;-44
2021/11/05 14:10:00;;;;;;;;;;;17.70;48.90;;;;;;4958678;28;19930;-48
2021/11/05 14:12:27;;;;;;;;;;;17.60;48.90;;;;;;4977559;28;19969;-45
2021/11/05 14:14:55;;;;;;;;;;;17.60;48.70;;;;;;4978489;28;20274;-46
2021/11/05 14:17:23;;;;;;;;;;;17.70;48.80;;;;;;4978070;28;19930;-46
2021/11/05 14:19:53;;;;;;;;;;;17.60;48.90;;;;;;4978051;28;19973;-46
2021/11/05 14:22:20;;;;;;;;;;;17.60;49.00;;;;;;4978030;28;19957;-45
2021/11/05 14:24:49;;;;;;;;;;;17.60;48.90;;;;;;4977119;28;20390;-46